sensor_id;sensor_type;location;lat;lon;timestamp;P1;durP1;ratioP1;P2;durP2;ratioP2
41883;SDS011;27566;50.930;5.328;2023-09-08T00:01:23;14.55;;;9.48;;
41883;SDS011;27566;50.930;5.328;2023-09-08T00:03:49;11.32;;;8.18;;
41883;SDS011;27566;50.930;5.328;2023-09-08T00:06:14;17.65;;;10.40;;
41883;SDS011;27566;50.930;5.328;2023-09-08T00:08:40;12.05;;;8.65;;
41883;SDS011;27566;50.930;5.328;2023-09-08T00:11:05;14.32;;;9.70;;
41883;SDS011;27566;50.930;5.328;2023-09-08T00:13:32;11.95;;;8.65;;
41883;SDS011;27566;50.930;5.328;2023-09-08T00:15:58;11.85;;;8.18;;
41883;SDS011;27566;50.930;5.328;2023-09-08T00:18:23;13.15;;;8.23;;
41883;SDS011;27566;50.930;5.328;2023-09-08T00:20:49;10.80;;;8.38;;
41883;SDS011;27566;50.930;5.328;2023-09-08T00:23:14;12.30;;;8.05;;
41883;SDS011;27566;50.930;5.328;2023-09-08T00:25:40;12.18;;;8.27;;
41883;SDS011;27566;50.930;5.328;2023-09-08T00:28:06;12.57;;;7.68;;
41883;SDS011;27566;50.930;5.328;2023-09-08T00:30:32;12.50;;;8.70;;
41883;SDS011;27566;50.930;5.328;2023-09-08T00:32:57;12.00;;;7.88;;
41883;SDS011;27566;50.930;5.328;2023-09-08T00:35:23;16.30;;;10.05;;
41883;SDS011;27566;50.930;5.328;2023-09-08T00:37:49;16.98;;;9.52;;
41883;SDS011;27566;50.930;5.328;2023-09-08T00:40:14;14.75;;;9.68;;
41883;SDS011;27566;50.930;5.328;2023-09-08T00:42:40;18.63;;;12.05;;
41883;SDS011;27566;50.930;5.328;2023-09-08T00:45:06;17.55;;;11.27;;
41883;SDS011;27566;50.930;5.328;2023-09-08T00:47:32;14.82;;;10.23;;
41883;SDS011;27566;50.930;5.328;2023-09-08T00:49:58;15.07;;;9.50;;
41883;SDS011;27566;50.930;5.328;2023-09-08T00:52:24;12.90;;;8.00;;
41883;SDS011;27566;50.930;5.328;2023-09-08T00:54:52;12.77;;;8.82;;
41883;SDS011;27566;50.930;5.328;2023-09-08T00:57:18;11.05;;;8.05;;
41883;SDS011;27566;50.930;5.328;2023-09-08T00:59:44;11.30;;;7.80;;
41883;SDS011;27566;50.930;5.328;2023-09-08T01:02:09;8.88;;;7.43;;
41883;SDS011;27566;50.930;5.328;2023-09-08T01:04:35;11.82;;;6.97;;
41883;SDS011;27566;50.930;5.328;2023-09-08T01:07:05;11.23;;;8.10;;
41883;SDS011;27566;50.930;5.328;2023-09-08T01:09:31;12.43;;;8.25;;
41883;SDS011;27566;50.930;5.328;2023-09-08T01:11:57;9.85;;;7.20;;
41883;SDS011;27566;50.930;5.328;2023-09-08T01:14:27;9.18;;;7.28;;
41883;SDS011;27566;50.930;5.328;2023-09-08T01:16:52;12.88;;;6.70;;
41883;SDS011;27566;50.930;5.328;2023-09-08T01:19:18;12.82;;;7.78;;
41883;SDS011;27566;50.930;5.328;2023-09-08T01:22:10;9.45;;;6.25;;
41883;SDS011;27566;50.930;5.328;2023-09-08T01:27:27;13.10;;;8.55;;
41883;SDS011;27566;50.930;5.328;2023-09-08T01:29:57;12.45;;;8.60;;
41883;SDS011;27566;50.930;5.328;2023-09-08T01:32:24;14.77;;;9.15;;
41883;SDS011;27566;50.930;5.328;2023-09-08T01:34:50;11.65;;;9.15;;
41883;SDS011;27566;50.930;5.328;2023-09-08T01:37:17;13.43;;;8.75;;
41883;SDS011;27566;50.930;5.328;2023-09-08T01:39:43;20.38;;;10.35;;
41883;SDS011;27566;50.930;5.328;2023-09-08T01:42:08;14.50;;;8.27;;
41883;SDS011;27566;50.930;5.328;2023-09-08T01:44:34;11.93;;;8.20;;
41883;SDS011;27566;50.930;5.328;2023-09-08T01:47:01;13.20;;;8.98;;
41883;SDS011;27566;50.930;5.328;2023-09-08T01:49:26;14.02;;;8.98;;
41883;SDS011;27566;50.930;5.328;2023-09-08T01:51:52;12.07;;;8.07;;
41883;SDS011;27566;50.930;5.328;2023-09-08T01:54:18;11.73;;;8.75;;
41883;SDS011;27566;50.930;5.328;2023-09-08T01:56:43;9.75;;;7.97;;
41883;SDS011;27566;50.930;5.328;2023-09-08T01:59:09;13.98;;;8.35;;
41883;SDS011;27566;50.930;5.328;2023-09-08T02:01:35;10.60;;;8.02;;
41883;SDS011;27566;50.930;5.328;2023-09-08T02:04:01;11.13;;;8.15;;
41883;SDS011;27566;50.930;5.328;2023-09-08T02:06:27;15.40;;;8.73;;
41883;SDS011;27566;50.930;5.328;2023-09-08T02:08:53;11.40;;;8.13;;
41883;SDS011;27566;50.930;5.328;2023-09-08T02:11:18;10.52;;;8.00;;
41883;SDS011;27566;50.930;5.328;2023-09-08T02:13:44;11.75;;;8.13;;
41883;SDS011;27566;50.930;5.328;2023-09-08T02:16:13;11.48;;;8.52;;
41883;SDS011;27566;50.930;5.328;2023-09-08T02:18:40;9.55;;;7.20;;
41883;SDS011;27566;50.930;5.328;2023-09-08T02:21:10;11.27;;;8.55;;
41883;SDS011;27566;50.930;5.328;2023-09-08T02:23:36;16.15;;;9.00;;
41883;SDS011;27566;50.930;5.328;2023-09-08T02:26:02;11.30;;;9.07;;
41883;SDS011;27566;50.930;5.328;2023-09-08T02:28:28;12.13;;;7.40;;
41883;SDS011;27566;50.930;5.328;2023-09-08T02:30:54;12.30;;;8.95;;
41883;SDS011;27566;50.930;5.328;2023-09-08T02:33:20;10.60;;;7.60;;
41883;SDS011;27566;50.930;5.328;2023-09-08T02:35:45;14.73;;;7.65;;
41883;SDS011;27566;50.930;5.328;2023-09-08T02:38:11;11.07;;;7.95;;
41883;SDS011;27566;50.930;5.328;2023-09-08T02:40:37;10.50;;;7.35;;
41883;SDS011;27566;50.930;5.328;2023-09-08T02:43:03;11.68;;;8.80;;
41883;SDS011;27566;50.930;5.328;2023-09-08T02:45:29;12.63;;;7.63;;
41883;SDS011;27566;50.930;5.328;2023-09-08T02:47:55;11.05;;;7.97;;
41883;SDS011;27566;50.930;5.328;2023-09-08T02:50:21;13.45;;;8.85;;
41883;SDS011;27566;50.930;5.328;2023-09-08T02:52:47;11.68;;;8.02;;
41883;SDS011;27566;50.930;5.328;2023-09-08T02:55:13;11.15;;;8.30;;
41883;SDS011;27566;50.930;5.328;2023-09-08T02:57:39;11.95;;;8.13;;
41883;SDS011;27566;50.930;5.328;2023-09-08T03:00:05;12.75;;;8.52;;
41883;SDS011;27566;50.930;5.328;2023-09-08T03:02:32;12.18;;;7.97;;
41883;SDS011;27566;50.930;5.328;2023-09-08T03:04:58;12.38;;;8.60;;
41883;SDS011;27566;50.930;5.328;2023-09-08T03:07:25;13.48;;;8.38;;
41883;SDS011;27566;50.930;5.328;2023-09-08T03:09:52;13.80;;;8.93;;
41883;SDS011;27566;50.930;5.328;2023-09-08T03:12:18;11.43;;;8.05;;
41883;SDS011;27566;50.930;5.328;2023-09-08T03:14:43;12.30;;;9.38;;
41883;SDS011;27566;50.930;5.328;2023-09-08T03:17:10;9.88;;;7.72;;
41883;SDS011;27566;50.930;5.328;2023-09-08T03:19:36;9.75;;;8.23;;
41883;SDS011;27566;50.930;5.328;2023-09-08T03:22:01;13.43;;;8.70;;
41883;SDS011;27566;50.930;5.328;2023-09-08T03:24:27;11.88;;;8.88;;
41883;SDS011;27566;50.930;5.328;2023-09-08T03:26:53;11.20;;;8.48;;
41883;SDS011;27566;50.930;5.328;2023-09-08T03:29:18;11.05;;;7.82;;
41883;SDS011;27566;50.930;5.328;2023-09-08T03:31:47;11.80;;;8.15;;
41883;SDS011;27566;50.930;5.328;2023-09-08T03:34:12;10.35;;;7.88;;
41883;SDS011;27566;50.930;5.328;2023-09-08T03:36:39;12.13;;;8.85;;
41883;SDS011;27566;50.930;5.328;2023-09-08T03:39:04;12.57;;;8.43;;
41883;SDS011;27566;50.930;5.328;2023-09-08T03:41:30;12.18;;;7.78;;
41883;SDS011;27566;50.930;5.328;2023-09-08T03:43:55;11.60;;;8.45;;
41883;SDS011;27566;50.930;5.328;2023-09-08T03:46:21;11.00;;;7.97;;
41883;SDS011;27566;50.930;5.328;2023-09-08T03:48:49;15.52;;;8.98;;
41883;SDS011;27566;50.930;5.328;2023-09-08T03:51:15;12.20;;;8.48;;
41883;SDS011;27566;50.930;5.328;2023-09-08T03:53:40;12.27;;;8.80;;
41883;SDS011;27566;50.930;5.328;2023-09-08T03:56:06;13.40;;;9.40;;
41883;SDS011;27566;50.930;5.328;2023-09-08T03:58:32;12.13;;;9.23;;
41883;SDS011;27566;50.930;5.328;2023-09-08T04:00:57;11.43;;;8.73;;
41883;SDS011;27566;50.930;5.328;2023-09-08T04:03:23;18.25;;;10.30;;
41883;SDS011;27566;50.930;5.328;2023-09-08T04:05:49;12.02;;;8.73;;
41883;SDS011;27566;50.930;5.328;2023-09-08T04:08:14;12.73;;;8.82;;
41883;SDS011;27566;50.930;5.328;2023-09-08T04:10:40;12.63;;;8.73;;
41883;SDS011;27566;50.930;5.328;2023-09-08T04:13:05;13.18;;;8.75;;
41883;SDS011;27566;50.930;5.328;2023-09-08T04:15:31;11.23;;;8.57;;
41883;SDS011;27566;50.930;5.328;2023-09-08T04:17:57;14.05;;;9.48;;
41883;SDS011;27566;50.930;5.328;2023-09-08T04:20:22;15.32;;;9.38;;
41883;SDS011;27566;50.930;5.328;2023-09-08T04:22:48;15.77;;;8.95;;
41883;SDS011;27566;50.930;5.328;2023-09-08T04:25:14;23.05;;;9.52;;
41883;SDS011;27566;50.930;5.328;2023-09-08T04:27:40;11.13;;;9.23;;
41883;SDS011;27566;50.930;5.328;2023-09-08T04:30:06;13.05;;;8.48;;
41883;SDS011;27566;50.930;5.328;2023-09-08T04:32:32;13.57;;;9.77;;
41883;SDS011;27566;50.930;5.328;2023-09-08T04:34:58;18.63;;;9.27;;
41883;SDS011;27566;50.930;5.328;2023-09-08T04:37:23;14.50;;;9.52;;
41883;SDS011;27566;50.930;5.328;2023-09-08T04:39:49;13.82;;;9.10;;
41883;SDS011;27566;50.930;5.328;2023-09-08T04:42:15;14.85;;;9.75;;
41883;SDS011;27566;50.930;5.328;2023-09-08T04:44:40;15.73;;;9.32;;
41883;SDS011;27566;50.930;5.328;2023-09-08T04:47:06;13.90;;;9.73;;
41883;SDS011;27566;50.930;5.328;2023-09-08T04:49:32;11.60;;;8.80;;
41883;SDS011;27566;50.930;5.328;2023-09-08T04:51:58;12.73;;;9.77;;
41883;SDS011;27566;50.930;5.328;2023-09-08T04:54:23;14.02;;;9.63;;
41883;SDS011;27566;50.930;5.328;2023-09-08T04:56:52;14.65;;;10.07;;
41883;SDS011;27566;50.930;5.328;2023-09-08T04:59:18;12.90;;;9.98;;
41883;SDS011;27566;50.930;5.328;2023-09-08T05:01:44;14.30;;;9.75;;
41883;SDS011;27566;50.930;5.328;2023-09-08T05:04:10;13.27;;;10.13;;
41883;SDS011;27566;50.930;5.328;2023-09-08T05:06:36;16.77;;;10.68;;
41883;SDS011;27566;50.930;5.328;2023-09-08T05:09:02;15.15;;;9.75;;
41883;SDS011;27566;50.930;5.328;2023-09-08T05:11:28;14.00;;;9.95;;
41883;SDS011;27566;50.930;5.328;2023-09-08T05:13:54;16.27;;;10.18;;
41883;SDS011;27566;50.930;5.328;2023-09-08T05:16:19;14.95;;;10.45;;
41883;SDS011;27566;50.930;5.328;2023-09-08T05:19:01;19.13;;;10.20;;
41883;SDS011;27566;50.930;5.328;2023-09-08T05:21:27;12.77;;;9.98;;
41883;SDS011;27566;50.930;5.328;2023-09-08T05:23:52;15.52;;;10.68;;
41883;SDS011;27566;50.930;5.328;2023-09-08T05:26:18;16.02;;;11.57;;
41883;SDS011;27566;50.930;5.328;2023-09-08T05:28:44;19.65;;;11.55;;
41883;SDS011;27566;50.930;5.328;2023-09-08T05:31:09;13.38;;;9.63;;
41883;SDS011;27566;50.930;5.328;2023-09-08T05:33:35;13.52;;;8.65;;
41883;SDS011;27566;50.930;5.328;2023-09-08T05:36:01;14.05;;;8.65;;
41883;SDS011;27566;50.930;5.328;2023-09-08T05:38:27;12.13;;;9.27;;
41883;SDS011;27566;50.930;5.328;2023-09-08T05:40:53;13.05;;;9.68;;
41883;SDS011;27566;50.930;5.328;2023-09-08T05:43:19;14.45;;;8.70;;
41883;SDS011;27566;50.930;5.328;2023-09-08T05:45:46;16.23;;;9.63;;
41883;SDS011;27566;50.930;5.328;2023-09-08T05:48:11;16.73;;;10.70;;
41883;SDS011;27566;50.930;5.328;2023-09-08T05:50:39;15.35;;;9.50;;
41883;SDS011;27566;50.930;5.328;2023-09-08T05:53:05;19.05;;;11.57;;
41883;SDS011;27566;50.930;5.328;2023-09-08T05:55:31;14.88;;;9.30;;
41883;SDS011;27566;50.930;5.328;2023-09-08T05:57:57;20.50;;;10.38;;
41883;SDS011;27566;50.930;5.328;2023-09-08T06:00:23;18.42;;;11.75;;
41883;SDS011;27566;50.930;5.328;2023-09-08T06:02:49;16.88;;;10.65;;
41883;SDS011;27566;50.930;5.328;2023-09-08T06:05:14;16.45;;;10.73;;
41883;SDS011;27566;50.930;5.328;2023-09-08T06:07:41;18.30;;;10.57;;
41883;SDS011;27566;50.930;5.328;2023-09-08T06:10:06;17.30;;;10.40;;
41883;SDS011;27566;50.930;5.328;2023-09-08T06:12:33;13.63;;;10.00;;
41883;SDS011;27566;50.930;5.328;2023-09-08T06:14:59;15.88;;;9.98;;
41883;SDS011;27566;50.930;5.328;2023-09-08T06:17:25;15.93;;;10.25;;
41883;SDS011;27566;50.930;5.328;2023-09-08T06:19:50;15.73;;;9.40;;
41883;SDS011;27566;50.930;5.328;2023-09-08T06:22:19;14.25;;;9.57;;
41883;SDS011;27566;50.930;5.328;2023-09-08T06:24:45;12.25;;;9.32;;
41883;SDS011;27566;50.930;5.328;2023-09-08T06:27:10;20.48;;;10.43;;
41883;SDS011;27566;50.930;5.328;2023-09-08T06:29:38;15.88;;;9.75;;
41883;SDS011;27566;50.930;5.328;2023-09-08T06:32:06;22.73;;;9.48;;
41883;SDS011;27566;50.930;5.328;2023-09-08T06:34:32;13.38;;;10.02;;
41883;SDS011;27566;50.930;5.328;2023-09-08T06:36:59;15.30;;;9.13;;
41883;SDS011;27566;50.930;5.328;2023-09-08T06:39:25;16.95;;;9.63;;
41883;SDS011;27566;50.930;5.328;2023-09-08T06:41:51;11.65;;;8.95;;
41883;SDS011;27566;50.930;5.328;2023-09-08T06:44:18;16.33;;;9.30;;
41883;SDS011;27566;50.930;5.328;2023-09-08T06:46:45;16.67;;;9.25;;
41883;SDS011;27566;50.930;5.328;2023-09-08T06:49:11;17.95;;;9.95;;
41883;SDS011;27566;50.930;5.328;2023-09-08T06:51:37;14.65;;;9.65;;
41883;SDS011;27566;50.930;5.328;2023-09-08T06:54:03;17.35;;;10.15;;
41883;SDS011;27566;50.930;5.328;2023-09-08T06:56:30;12.25;;;9.25;;
41883;SDS011;27566;50.930;5.328;2023-09-08T06:58:56;19.17;;;8.73;;
41883;SDS011;27566;50.930;5.328;2023-09-08T07:01:25;13.32;;;8.45;;
41883;SDS011;27566;50.930;5.328;2023-09-08T07:03:51;13.68;;;8.73;;
41883;SDS011;27566;50.930;5.328;2023-09-08T07:06:17;12.30;;;8.70;;
41883;SDS011;27566;50.930;5.328;2023-09-08T07:08:43;13.32;;;8.38;;
41883;SDS011;27566;50.930;5.328;2023-09-08T07:11:09;21.02;;;8.90;;
41883;SDS011;27566;50.930;5.328;2023-09-08T07:13:35;12.40;;;9.07;;
41883;SDS011;27566;50.930;5.328;2023-09-08T07:16:01;12.80;;;9.00;;
41883;SDS011;27566;50.930;5.328;2023-09-08T07:18:27;13.02;;;8.80;;
41883;SDS011;27566;50.930;5.328;2023-09-08T07:20:53;11.15;;;8.68;;
41883;SDS011;27566;50.930;5.328;2023-09-08T07:23:19;13.38;;;10.70;;
41883;SDS011;27566;50.930;5.328;2023-09-08T07:25:46;15.55;;;8.13;;
41883;SDS011;27566;50.930;5.328;2023-09-08T07:28:12;16.23;;;10.10;;
41883;SDS011;27566;50.930;5.328;2023-09-08T07:30:38;12.80;;;10.00;;
41883;SDS011;27566;50.930;5.328;2023-09-08T07:33:04;15.10;;;8.15;;
41883;SDS011;27566;50.930;5.328;2023-09-08T07:35:31;16.95;;;9.60;;
41883;SDS011;27566;50.930;5.328;2023-09-08T07:38:03;14.65;;;9.27;;
41883;SDS011;27566;50.930;5.328;2023-09-08T07:40:31;13.63;;;9.27;;
41883;SDS011;27566;50.930;5.328;2023-09-08T07:43:03;12.40;;;8.20;;
41883;SDS011;27566;50.930;5.328;2023-09-08T07:45:29;12.75;;;8.27;;
41883;SDS011;27566;50.930;5.328;2023-09-08T07:47:55;13.73;;;9.05;;
41883;SDS011;27566;50.930;5.328;2023-09-08T07:50:25;15.25;;;7.95;;
41883;SDS011;27566;50.930;5.328;2023-09-08T07:52:53;15.48;;;9.23;;
41883;SDS011;27566;50.930;5.328;2023-09-08T07:55:20;11.70;;;8.35;;
41883;SDS011;27566;50.930;5.328;2023-09-08T07:57:54;13.10;;;8.02;;
41883;SDS011;27566;50.930;5.328;2023-09-08T08:00:20;15.20;;;7.18;;
41883;SDS011;27566;50.930;5.328;2023-09-08T08:02:47;9.40;;;7.03;;
41883;SDS011;27566;50.930;5.328;2023-09-08T08:05:16;12.30;;;7.22;;
41883;SDS011;27566;50.930;5.328;2023-09-08T08:07:42;12.82;;;7.80;;
41883;SDS011;27566;50.930;5.328;2023-09-08T08:10:09;10.60;;;6.20;;
41883;SDS011;27566;50.930;5.328;2023-09-08T08:12:36;8.63;;;6.78;;
41883;SDS011;27566;50.930;5.328;2023-09-08T08:15:03;8.07;;;6.18;;
41883;SDS011;27566;50.930;5.328;2023-09-08T08:17:29;8.80;;;6.55;;
41883;SDS011;27566;50.930;5.328;2023-09-08T08:19:56;10.13;;;6.07;;
41883;SDS011;27566;50.930;5.328;2023-09-08T08:22:24;9.05;;;5.82;;
41883;SDS011;27566;50.930;5.328;2023-09-08T08:24:50;10.50;;;6.88;;
41883;SDS011;27566;50.930;5.328;2023-09-08T08:27:16;11.50;;;6.53;;
41883;SDS011;27566;50.930;5.328;2023-09-08T08:29:42;10.68;;;7.25;;
41883;SDS011;27566;50.930;5.328;2023-09-08T08:32:08;11.13;;;7.95;;
41883;SDS011;27566;50.930;5.328;2023-09-08T08:34:34;9.30;;;7.10;;
41883;SDS011;27566;50.930;5.328;2023-09-08T08:37:00;17.77;;;7.60;;
41883;SDS011;27566;50.930;5.328;2023-09-08T08:39:26;10.10;;;6.53;;
41883;SDS011;27566;50.930;5.328;2023-09-08T08:41:53;15.77;;;7.25;;
41883;SDS011;27566;50.930;5.328;2023-09-08T08:44:19;11.60;;;6.88;;
41883;SDS011;27566;50.930;5.328;2023-09-08T08:46:46;9.40;;;6.38;;
41883;SDS011;27566;50.930;5.328;2023-09-08T08:49:13;11.82;;;7.00;;
41883;SDS011;27566;50.930;5.328;2023-09-08T08:51:44;9.00;;;6.45;;
41883;SDS011;27566;50.930;5.328;2023-09-08T08:54:13;11.85;;;7.65;;
41883;SDS011;27566;50.930;5.328;2023-09-08T08:56:40;14.00;;;7.25;;
41883;SDS011;27566;50.930;5.328;2023-09-08T08:59:07;15.30;;;7.30;;
41883;SDS011;27566;50.930;5.328;2023-09-08T09:01:34;14.32;;;6.47;;
41883;SDS011;27566;50.930;5.328;2023-09-08T09:04:01;12.13;;;7.40;;
41883;SDS011;27566;50.930;5.328;2023-09-08T09:06:31;12.13;;;6.80;;
41883;SDS011;27566;50.930;5.328;2023-09-08T09:08:57;8.90;;;7.05;;
41883;SDS011;27566;50.930;5.328;2023-09-08T09:11:24;9.27;;;6.45;;
41883;SDS011;27566;50.930;5.328;2023-09-08T09:13:50;10.63;;;7.25;;
41883;SDS011;27566;50.930;5.328;2023-09-08T09:16:16;14.65;;;6.68;;
41883;SDS011;27566;50.930;5.328;2023-09-08T09:18:55;12.45;;;7.35;;
41883;SDS011;27566;50.930;5.328;2023-09-08T09:21:21;11.88;;;7.18;;
41883;SDS011;27566;50.930;5.328;2023-09-08T09:23:47;11.32;;;6.40;;
41883;SDS011;27566;50.930;5.328;2023-09-08T09:26:22;13.23;;;7.95;;
41883;SDS011;27566;50.930;5.328;2023-09-08T09:28:49;11.75;;;6.93;;
41883;SDS011;27566;50.930;5.328;2023-09-08T09:31:17;8.18;;;6.18;;
41883;SDS011;27566;50.930;5.328;2023-09-08T09:33:44;11.93;;;6.60;;
41883;SDS011;27566;50.930;5.328;2023-09-08T09:36:12;10.23;;;7.18;;
41883;SDS011;27566;50.930;5.328;2023-09-08T09:38:46;10.40;;;7.70;;
41883;SDS011;27566;50.930;5.328;2023-09-08T09:41:12;11.60;;;6.95;;
41883;SDS011;27566;50.930;5.328;2023-09-08T09:43:38;17.15;;;7.18;;
41883;SDS011;27566;50.930;5.328;2023-09-08T09:46:07;12.10;;;7.72;;
41883;SDS011;27566;50.930;5.328;2023-09-08T09:48:34;13.50;;;8.50;;
41883;SDS011;27566;50.930;5.328;2023-09-08T09:51:14;10.18;;;7.05;;
41883;SDS011;27566;50.930;5.328;2023-09-08T09:53:44;13.63;;;7.80;;
41883;SDS011;27566;50.930;5.328;2023-09-08T09:56:11;11.20;;;7.55;;
41883;SDS011;27566;50.930;5.328;2023-09-08T09:58:38;9.80;;;6.93;;
41883;SDS011;27566;50.930;5.328;2023-09-08T10:01:05;12.05;;;6.78;;
41883;SDS011;27566;50.930;5.328;2023-09-08T10:03:32;8.85;;;7.07;;
41883;SDS011;27566;50.930;5.328;2023-09-08T10:05:59;11.70;;;6.35;;
41883;SDS011;27566;50.930;5.328;2023-09-08T10:08:28;10.85;;;6.55;;
41883;SDS011;27566;50.930;5.328;2023-09-08T10:10:57;12.52;;;6.45;;
41883;SDS011;27566;50.930;5.328;2023-09-08T10:13:27;8.63;;;5.97;;
41883;SDS011;27566;50.930;5.328;2023-09-08T10:15:57;11.63;;;6.53;;
41883;SDS011;27566;50.930;5.328;2023-09-08T10:18:24;10.65;;;6.70;;
41883;SDS011;27566;50.930;5.328;2023-09-08T10:20:51;10.75;;;6.35;;
41883;SDS011;27566;50.930;5.328;2023-09-08T10:23:23;8.85;;;6.40;;
41883;SDS011;27566;50.930;5.328;2023-09-08T10:26:05;11.68;;;6.68;;
41883;SDS011;27566;50.930;5.328;2023-09-08T10:28:34;9.77;;;6.93;;
41883;SDS011;27566;50.930;5.328;2023-09-08T10:31:01;8.30;;;6.65;;
41883;SDS011;27566;50.930;5.328;2023-09-08T10:33:28;15.07;;;8.80;;
41883;SDS011;27566;50.930;5.328;2023-09-08T10:35:57;11.27;;;6.82;;
41883;SDS011;27566;50.930;5.328;2023-09-08T10:38:26;8.85;;;5.63;;
41883;SDS011;27566;50.930;5.328;2023-09-08T10:40:54;9.40;;;6.07;;
41883;SDS011;27566;50.930;5.328;2023-09-08T10:46:40;9.88;;;6.05;;
41883;SDS011;27566;50.930;5.328;2023-09-08T10:49:06;10.10;;;6.25;;
41883;SDS011;27566;50.930;5.328;2023-09-08T10:51:33;11.15;;;7.07;;
41883;SDS011;27566;50.930;5.328;2023-09-08T10:53:59;12.10;;;6.22;;
41883;SDS011;27566;50.930;5.328;2023-09-08T10:59:37;10.43;;;5.93;;
41883;SDS011;27566;50.930;5.328;2023-09-08T11:02:03;7.95;;;5.95;;
41883;SDS011;27566;50.930;5.328;2023-09-08T11:04:29;10.55;;;6.25;;
41883;SDS011;27566;50.930;5.328;2023-09-08T11:06:58;8.90;;;5.65;;
41883;SDS011;27566;50.930;5.328;2023-09-08T11:09:24;10.82;;;6.18;;
41883;SDS011;27566;50.930;5.328;2023-09-08T11:11:50;10.88;;;7.22;;
41883;SDS011;27566;50.930;5.328;2023-09-08T11:14:15;12.68;;;6.20;;
41883;SDS011;27566;50.930;5.328;2023-09-08T11:16:42;9.65;;;6.53;;
41883;SDS011;27566;50.930;5.328;2023-09-08T11:19:08;10.35;;;6.28;;
41883;SDS011;27566;50.930;5.328;2023-09-08T11:21:35;11.02;;;6.88;;
41883;SDS011;27566;50.930;5.328;2023-09-08T11:24:02;8.43;;;5.97;;
41883;SDS011;27566;50.930;5.328;2023-09-08T11:26:29;11.38;;;7.60;;
41883;SDS011;27566;50.930;5.328;2023-09-08T11:28:59;7.93;;;6.40;;
41883;SDS011;27566;50.930;5.328;2023-09-08T11:31:25;11.70;;;6.93;;
41883;SDS011;27566;50.930;5.328;2023-09-08T11:33:54;7.72;;;5.43;;
41883;SDS011;27566;50.930;5.328;2023-09-08T11:36:20;8.57;;;5.65;;
41883;SDS011;27566;50.930;5.328;2023-09-08T11:38:46;9.15;;;5.93;;
41883;SDS011;27566;50.930;5.328;2023-09-08T11:41:12;9.35;;;5.78;;
41883;SDS011;27566;50.930;5.328;2023-09-08T11:43:38;11.73;;;6.22;;
41883;SDS011;27566;50.930;5.328;2023-09-08T11:46:04;10.10;;;5.75;;
41883;SDS011;27566;50.930;5.328;2023-09-08T11:48:31;8.27;;;5.85;;
41883;SDS011;27566;50.930;5.328;2023-09-08T11:50:58;10.73;;;5.55;;
41883;SDS011;27566;50.930;5.328;2023-09-08T11:53:27;11.30;;;6.60;;
41883;SDS011;27566;50.930;5.328;2023-09-08T11:55:53;11.38;;;6.57;;
41883;SDS011;27566;50.930;5.328;2023-09-08T11:58:19;9.75;;;6.47;;
41883;SDS011;27566;50.930;5.328;2023-09-08T12:00:46;10.50;;;7.82;;
41883;SDS011;27566;50.930;5.328;2023-09-08T12:03:15;11.95;;;7.75;;
41883;SDS011;27566;50.930;5.328;2023-09-08T12:05:42;10.30;;;6.55;;
41883;SDS011;27566;50.930;5.328;2023-09-08T12:08:15;9.38;;;6.88;;
41883;SDS011;27566;50.930;5.328;2023-09-08T12:10:41;10.00;;;5.30;;
41883;SDS011;27566;50.930;5.328;2023-09-08T12:13:11;8.40;;;5.97;;
41883;SDS011;27566;50.930;5.328;2023-09-08T12:15:42;12.13;;;5.30;;
41883;SDS011;27566;50.930;5.328;2023-09-08T12:18:09;8.30;;;5.60;;
41883;SDS011;27566;50.930;5.328;2023-09-08T12:20:37;11.02;;;5.20;;
41883;SDS011;27566;50.930;5.328;2023-09-08T12:23:04;10.73;;;5.82;;
41883;SDS011;27566;50.930;5.328;2023-09-08T12:25:43;8.85;;;6.35;;
41883;SDS011;27566;50.930;5.328;2023-09-08T12:28:21;10.07;;;5.75;;
41883;SDS011;27566;50.930;5.328;2023-09-08T12:30:50;11.65;;;7.38;;
41883;SDS011;27566;50.930;5.328;2023-09-08T12:33:18;10.27;;;5.43;;
41883;SDS011;27566;50.930;5.328;2023-09-08T12:35:45;12.15;;;7.60;;
41883;SDS011;27566;50.930;5.328;2023-09-08T12:38:13;9.02;;;5.78;;
41883;SDS011;27566;50.930;5.328;2023-09-08T12:40:39;12.13;;;6.22;;
41883;SDS011;27566;50.930;5.328;2023-09-08T12:43:05;10.18;;;6.38;;
41883;SDS011;27566;50.930;5.328;2023-09-08T12:45:32;10.52;;;6.28;;
41883;SDS011;27566;50.930;5.328;2023-09-08T12:47:59;10.43;;;5.15;;
41883;SDS011;27566;50.930;5.328;2023-09-08T12:50:29;8.93;;;5.53;;
41883;SDS011;27566;50.930;5.328;2023-09-08T12:52:55;8.50;;;4.82;;
41883;SDS011;27566;50.930;5.328;2023-09-08T12:55:22;9.63;;;5.38;;
41883;SDS011;27566;50.930;5.328;2023-09-08T12:57:49;8.95;;;6.68;;
41883;SDS011;27566;50.930;5.328;2023-09-08T13:00:19;13.05;;;7.20;;
41883;SDS011;27566;50.930;5.328;2023-09-08T13:02:47;8.23;;;5.43;;
41883;SDS011;27566;50.930;5.328;2023-09-08T13:05:14;7.22;;;5.13;;
41883;SDS011;27566;50.930;5.328;2023-09-08T13:07:40;9.45;;;6.38;;
41883;SDS011;27566;50.930;5.328;2023-09-08T13:10:06;8.48;;;5.20;;
41883;SDS011;27566;50.930;5.328;2023-09-08T13:12:32;9.57;;;5.10;;
41883;SDS011;27566;50.930;5.328;2023-09-08T13:14:59;10.27;;;5.50;;
41883;SDS011;27566;50.930;5.328;2023-09-08T13:17:25;8.48;;;5.63;;
41883;SDS011;27566;50.930;5.328;2023-09-08T13:19:50;7.30;;;4.68;;
41883;SDS011;27566;50.930;5.328;2023-09-08T13:22:18;7.95;;;4.93;;
41883;SDS011;27566;50.930;5.328;2023-09-08T13:24:44;7.88;;;4.80;;
41883;SDS011;27566;50.930;5.328;2023-09-08T13:27:09;9.75;;;5.78;;
41883;SDS011;27566;50.930;5.328;2023-09-08T13:29:36;8.20;;;5.47;;
41883;SDS011;27566;50.930;5.328;2023-09-08T13:32:03;12.57;;;5.63;;
41883;SDS011;27566;50.930;5.328;2023-09-08T13:34:29;9.90;;;4.93;;
41883;SDS011;27566;50.930;5.328;2023-09-08T13:36:58;7.93;;;5.40;;
41883;SDS011;27566;50.930;5.328;2023-09-08T13:39:24;8.65;;;5.10;;
41883;SDS011;27566;50.930;5.328;2023-09-08T13:41:50;9.23;;;5.80;;
41883;SDS011;27566;50.930;5.328;2023-09-08T13:44:23;9.23;;;5.60;;
41883;SDS011;27566;50.930;5.328;2023-09-08T13:46:49;9.68;;;5.18;;
41883;SDS011;27566;50.930;5.328;2023-09-08T13:49:16;8.23;;;5.43;;
41883;SDS011;27566;50.930;5.328;2023-09-08T13:51:43;9.75;;;5.38;;
41883;SDS011;27566;50.930;5.328;2023-09-08T13:54:10;9.38;;;4.43;;
41883;SDS011;27566;50.930;5.328;2023-09-08T13:56:40;8.73;;;4.95;;
41883;SDS011;27566;50.930;5.328;2023-09-08T13:59:07;9.52;;;4.70;;
41883;SDS011;27566;50.930;5.328;2023-09-08T14:01:34;6.75;;;4.13;;
41883;SDS011;27566;50.930;5.328;2023-09-08T14:04:01;8.77;;;5.22;;
41883;SDS011;27566;50.930;5.328;2023-09-08T14:06:28;8.45;;;4.45;;
41883;SDS011;27566;50.930;5.328;2023-09-08T14:08:54;9.77;;;5.03;;
41883;SDS011;27566;50.930;5.328;2023-09-08T14:11:21;7.65;;;5.47;;
41883;SDS011;27566;50.930;5.328;2023-09-08T14:13:47;6.78;;;4.68;;
41883;SDS011;27566;50.930;5.328;2023-09-08T14:16:13;7.93;;;4.90;;
41883;SDS011;27566;50.930;5.328;2023-09-08T14:18:39;12.00;;;5.13;;
41883;SDS011;27566;50.930;5.328;2023-09-08T14:21:06;7.53;;;4.97;;
41883;SDS011;27566;50.930;5.328;2023-09-08T14:23:33;7.47;;;4.80;;
41883;SDS011;27566;50.930;5.328;2023-09-08T14:25:59;8.68;;;5.05;;
41883;SDS011;27566;50.930;5.328;2023-09-08T14:28:26;6.38;;;4.78;;
41883;SDS011;27566;50.930;5.328;2023-09-08T14:30:52;8.23;;;4.18;;
41883;SDS011;27566;50.930;5.328;2023-09-08T14:33:18;9.90;;;4.70;;
41883;SDS011;27566;50.930;5.328;2023-09-08T14:35:45;8.05;;;4.30;;
41883;SDS011;27566;50.930;5.328;2023-09-08T14:38:16;16.73;;;5.38;;
41883;SDS011;27566;50.930;5.328;2023-09-08T14:40:45;7.68;;;4.55;;
41883;SDS011;27566;50.930;5.328;2023-09-08T14:43:20;11.18;;;4.20;;